Weather at Trstenik Airport

Public forecast

Using degrees Celsius for public forecast. Weather courtesy of forecast.io.

Closest aviation weather report (METAR) to Trstenik Airport

Closest report is Morava Airport, 22.8 nm (42.2 km) WNW.

2022/12/06 08:30 (retrieved 14 minutes ago)

LYKV 060830Z VRB02KT 4000 BR SCT015 03/03 Q1018 NOSIG

Closest aviation forecast (TAF) to Trstenik Airport

Closest forecast is Morava Airport, 22.8 nm (42.2 km) WNW.

2022/12/06 06:00 (retrieved 3 hours ago)

TAF LYKV 060500Z 0606/0706 VRB02KT 8000 SCT040 TX10/0612Z TNM02/0606Z TEMPO 0615/0706 3000 -RA BR BKN015 BKN033